Terminal Aerodrome Forecast
Issued by NWS

Home | Current Version | Previous Version | Text Only | Print | Product List | Glossary On
Versions: 1 2 3 4 5 6 7 8 9 10 11 12 13 14 15 16 17 18 19 20 21
000
FTAK31 PAJN 011319 AAB
TAFAKT
TAF AMD
PAKT 011319Z 0113/0212 VRB04KT P6SM VCSH SCT005 OVC050
      TEMPO 0113/0116 16004KT 6SM -SHRA BR BKN005 OVC045
     FM011800 33008KT P6SM VCSH SCT025 SCT040 BKN060
     FM020400 33004KT P6SM FEW035 SCT060 BKN100=

USA.gov is the U.S. government's official web portal to all federal, state and local government web resources and services.